地図

経路データ

SID SEASON NUMBER BASIN SUBBASIN NAME ISO_TIME NATURE LAT LON WMO_WIND WMO_PRES WMO_AGENCY TRACK_TYPE DIST2LAND LANDFALL IFLAG USA_AGENCY USA_ATCF_ID USA_LAT USA_LON USA_RECORD USA_STATUS USA_WIND USA_PRES USA_SSHS USA_R34_NE USA_R34_SE USA_R34_SW USA_R34_NW USA_R50_NE USA_R50_SE USA_R50_SW USA_R50_NW USA_R64_NE USA_R64_SE USA_R64_SW USA_R64_NW USA_POCI USA_ROCI USA_RMW USA_EYE TOKYO_LAT TOKYO_LON TOKYO_GRADE TOKYO_WIND TOKYO_PRES TOKYO_R50_DIR TOKYO_R50_LONG TOKYO_R50_SHORT TOKYO_R30_DIR TOKYO_R30_LONG TOKYO_R30_SHORT TOKYO_LAND CMA_LAT CMA_LON CMA_CAT CMA_WIND CMA_PRES HKO_LAT HKO_LON HKO_CAT HKO_WIND HKO_PRES NEWDELHI_LAT NEWDELHI_LON NEWDELHI_GRADE NEWDELHI_WIND NEWDELHI_PRES NEWDELHI_CI NEWDELHI_DP NEWDELHI_POCI REUNION_LAT REUNION_LON REUNION_TYPE REUNION_WIND REUNION_PRES REUNION_TNUM REUNION_CI REUNION_RMW REUNION_R34_NE REUNION_R34_SE REUNION_R34_SW REUNION_R34_NW REUNION_R50_NE REUNION_R50_SE REUNION_R50_SW REUNION_R50_NW REUNION_R64_NE REUNION_R64_SE REUNION_R64_SW REUNION_R64_NW BOM_LAT BOM_LON BOM_TYPE BOM_WIND BOM_PRES BOM_TNUM BOM_CI BOM_RMW BOM_R34_NE BOM_R34_SE BOM_R34_SW BOM_R34_NW BOM_R50_NE BOM_R50_SE BOM_R50_SW BOM_R50_NW BOM_R64_NE BOM_R64_SE BOM_R64_SW BOM_R64_NW BOM_ROCI BOM_POCI BOM_EYE BOM_POS_METHOD BOM_PRES_METHOD NADI_LAT NADI_LON NADI_CAT NADI_WIND NADI_PRES WELLINGTON_LAT WELLINGTON_LON WELLINGTON_WIND WELLINGTON_PRES DS824_LAT DS824_LON DS824_STAGE DS824_WIND DS824_PRES TD9636_LAT TD9636_LON TD9636_STAGE TD9636_WIND TD9636_PRES TD9635_LAT TD9635_LON TD9635_WIND TD9635_PRES TD9635_ROCI NEUMANN_LAT NEUMANN_LON NEUMANN_CLASS NEUMANN_WIND NEUMANN_PRES MLC_LAT MLC_LON MLC_CLASS MLC_WIND MLC_PRES USA_GUST BOM_GUST BOM_GUST_PER REUNION_GUST REUNION_GUST_PER USA_SEAHGT USA_SEARAD_NE USA_SEARAD_SE USA_SEARAD_SW USA_SEARAD_NW STORM_SPEED STORM_DIR
1895161N13116 1895 11 WP MM NOT_NAMED 1895-06-09 16:00:00 NR 13.3000 116.400 main 402 402 __________O___ -1 13.3000 116.400 3 11 291
1895161N13116 1895 11 WP MM NOT_NAMED 1895-06-09 18:00:00 NR 13.4252 116.062 main 435 444 __________P___ -1 13.4252 116.062 3 11 291
1895161N13116 1895 11 WP MM NOT_NAMED 1895-06-09 21:00:00 NR 13.6156 115.551 main 492 501 __________P___ -1 13.6156 115.551 3 11 291
1895161N13116 1895 11 WP MM NOT_NAMED 1895-06-10 00:00:00 NR 13.8139 115.027 main 557 554 __________P___ -1 13.8139 115.027 3 11 292
1895161N13116 1895 11 WP MM NOT_NAMED 1895-06-10 03:00:00 NR 14.0256 114.486 main 554 536 __________P___ -1 14.0256 114.486 3 11 292
1895161N13116 1895 11 WP MM NOT_NAMED 1895-06-10 04:00:00 NR 14.1000 114.300 main 536 498 __________O___ -1 14.1000 114.300 4 12 293
1895161N13116 1895 11 WP MM NOT_NAMED 1895-06-10 06:00:00 NR 14.2557 113.920 main 498 436 __________P___ -1 14.2557 113.920 4 12 294
1895161N13116 1895 11 WP MM NOT_NAMED 1895-06-10 09:00:00 NR 14.5080 113.337 main 436 387 __________P___ -1 14.5080 113.337 4 13 295
1895161N13116 1895 11 WP MM NOT_NAMED 1895-06-10 12:00:00 NR 14.7854 112.753 main 390 336 __________P___ -1 14.7854 112.753 4 13 298
1895161N13116 1895 11 WP MM NOT_NAMED 1895-06-10 15:00:00 NR 15.0912 112.184 main 336 316 __________P___ -1 15.0912 112.184 4 13 300
1895161N13116 1895 11 WP MM NOT_NAMED 1895-06-10 16:00:00 NR 15.2000 112.000 main 316 279 __________O___ -1 15.2000 112.000 4 13 302
1895161N13116 1895 11 WP MM NOT_NAMED 1895-06-10 18:00:00 NR 15.4217 111.634 main 279 245 __________P___ -1 15.4217 111.634 4 13 304
1895161N13116 1895 11 WP MM NOT_NAMED 1895-06-10 21:00:00 NR 15.7797 111.103 main 245 208 __________P___ -1 15.7797 111.103 4 12 307
1895161N13116 1895 11 WP MM NOT_NAMED 1895-06-11 00:00:00 NR 16.1623 110.603 main 213 184 __________P___ -1 16.1623 110.603 4 12 310
1895161N13116 1895 11 WP MM NOT_NAMED 1895-06-11 03:00:00 NR 16.5633 110.143 main 184 170 __________P___ -1 16.5633 110.143 4 12 313
1895161N13116 1895 11 WP MM NOT_NAMED 1895-06-11 04:00:00 NR 16.7000 110.000 main 170 134 __________O___ -1 16.7000 110.000 4 12 315
1895161N13116 1895 11 WP MM NOT_NAMED 1895-06-11 06:00:00 NR 16.9716 109.722 main 134 90 __________P___ -1 16.9716 109.722 4 11 318
1895161N13116 1895 11 WP MM NOT_NAMED 1895-06-11 09:00:00 NR 17.3919 109.342 main 91 67 __________P___ -1 17.3919 109.342 4 11 321
1895161N13116 1895 11 WP MM NOT_NAMED 1895-06-11 12:00:00 NR 17.8221 109.002 main 67 22 __________P___ -1 17.8221 109.002 4 11 325
1895161N13116 1895 11 WP MM NOT_NAMED 1895-06-11 15:00:00 NR 18.2558 108.696 main 22 15 __________P___ -1 18.2558 108.696 4 10 327
1895161N13116 1895 11 WP MM NOT_NAMED 1895-06-11 16:00:00 NR 18.4000 108.600 main 15 10 __________O___ -1 18.4000 108.600 4 10 328
1895161N13116 1895 11 WP MM NOT_NAMED 1895-06-11 18:00:00 NR 18.6869 108.417 main 31 31 __________P___ -1 18.6869 108.417 4 10 330
1895161N13116 1895 11 WP MM NOT_NAMED 1895-06-11 21:00:00 NR 19.1137 108.158 main 47 52 __________P___ -1 19.1137 108.158 4 10 331
1895161N13116 1895 11 WP MM NOT_NAMED 1895-06-12 00:00:00 NR 19.5376 107.915 main 76 80 __________P___ -1 19.5376 107.915 4 10 332
1895161N13116 1895 11 WP MM NOT_NAMED 1895-06-12 03:00:00 NR 19.9596 107.678 main 113 98 __________P___ -1 19.9596 107.678 4 10 332
1895161N13116 1895 11 WP MM NOT_NAMED 1895-06-12 04:00:00 NR 20.1000 107.600 main 98 __________O___ -1 20.1000 107.600 4 10 333

デジタル台風データ・検索

IBTrACS Databaseについて

本データベースは、米国NOAAが公開する1842年以降の世界の熱帯低気圧のベストトラックデータアーカイブInternational Best Track Archive for Climate Stewardship (IBTrACS)を、ウェブで閲覧しやすい形式に変換したものです。

最終更新日:2021-10-08